createdAt,value
2018-04-12T00:01:33.304Z,61.00
2018-04-12T00:04:04.076Z,61.23
2018-04-12T00:06:34.814Z,61.82
2018-04-12T00:09:06.939Z,61.51
2018-04-12T00:11:43.124Z,61.78
2018-04-12T00:14:14.931Z,61.68
2018-04-12T00:16:47.296Z,61.59
2018-04-12T00:19:18.374Z,61.72
2018-04-12T00:21:49.048Z,62.14
2018-04-12T00:24:19.827Z,63.02
2018-04-12T00:26:50.704Z,63.74
2018-04-12T00:29:22.300Z,63.92
2018-04-12T00:34:35.699Z,64.35
2018-04-12T00:37:06.159Z,65.24
2018-04-12T00:39:37.666Z,65.74
2018-04-12T00:42:08.988Z,66.08
2018-04-12T00:44:39.802Z,66.32
2018-04-12T00:47:10.694Z,66.73
2018-04-12T00:49:40.962Z,66.74
2018-04-12T00:52:11.329Z,66.94
2018-04-12T00:54:42.298Z,67.28
2018-04-12T00:57:12.871Z,67.34
2018-04-12T00:59:43.131Z,67.41
2018-04-12T01:02:14.626Z,67.76
2018-04-12T01:04:45.538Z,67.16
2018-04-12T01:07:15.970Z,66.95
2018-04-12T01:09:47.076Z,67.40
2018-04-12T01:12:17.395Z,67.75
2018-04-12T01:14:47.601Z,68.24
2018-04-12T01:17:18.794Z,68.40
2018-04-12T01:19:49.572Z,68.01
2018-04-12T01:22:28.298Z,67.44
2018-04-12T01:25:01.578Z,68.04
2018-04-12T01:28:21.465Z,67.79
2018-04-12T01:30:52.307Z,66.94
2018-04-12T01:33:22.969Z,66.67
2018-04-12T01:35:53.349Z,67.06
2018-04-12T01:38:23.926Z,67.88
2018-04-12T01:40:54.252Z,68.52
2018-04-12T01:43:32.061Z,68.72
2018-04-12T01:46:03.339Z,68.67
2018-04-12T01:48:34.017Z,69.02
2018-04-12T01:51:05.529Z,69.12
2018-04-12T01:53:35.927Z,69.08
2018-04-12T01:56:11.331Z,69.25
2018-04-12T01:58:41.819Z,69.48
2018-04-12T02:01:12.030Z,69.75
2018-04-12T02:03:42.774Z,69.81
2018-04-12T02:06:13.211Z,69.89
2018-04-12T02:08:43.613Z,70.03
2018-04-12T02:11:14.313Z,70.31
2018-04-12T02:13:44.795Z,70.29
2018-04-12T02:16:15.807Z,70.37
2018-04-12T02:18:47.219Z,70.19
2018-04-12T02:21:17.857Z,70.03
2018-04-12T02:23:48.748Z,70.19
2018-04-12T02:26:19.208Z,70.42
2018-04-12T02:37:08.310Z,71.31
2018-04-12T02:39:38.789Z,71.49
2018-04-12T02:42:09.141Z,71.56
2018-04-12T02:44:40.104Z,71.55
2018-04-12T02:47:13.274Z,71.17
2018-04-12T02:49:49.816Z,71.12
2018-04-12T02:52:21.263Z,70.93
2018-04-12T02:54:52.797Z,70.27
2018-04-12T02:57:24.650Z,70.08
2018-04-12T02:59:54.862Z,70.73
2018-04-12T03:02:26.175Z,70.51
2018-04-12T03:04:57.099Z,71.09
2018-04-12T03:07:27.369Z,70.59
2018-04-12T03:09:59.531Z,70.46
2018-04-12T03:12:30.450Z,69.69
2018-04-12T03:15:03.734Z,70.38
2018-04-12T03:17:34.556Z,70.32
2018-04-12T03:20:07.260Z,70.03
2018-04-12T03:25:11.090Z,71.17
2018-04-12T03:27:41.627Z,71.27
2018-04-12T03:30:15.199Z,70.93
2018-04-12T03:32:46.153Z,70.42
2018-04-12T03:35:16.472Z,70.38
2018-04-12T03:37:46.611Z,70.54
2018-04-12T03:40:17.045Z,70.92
2018-04-12T03:42:47.438Z,70.47
2018-04-12T03:45:18.095Z,69.90
2018-04-12T03:47:49.232Z,69.51
2018-04-12T03:50:20.105Z,69.97
2018-04-12T03:52:50.585Z,70.44
2018-04-12T03:55:21.203Z,71.05
2018-04-12T03:57:51.984Z,70.98
2018-04-12T04:00:22.656Z,70.97
2018-04-12T04:02:53.779Z,70.68
2018-04-12T04:05:24.657Z,70.88
2018-04-12T04:07:55.571Z,70.77
2018-04-12T04:10:25.873Z,70.08
2018-04-12T04:12:56.267Z,70.06
2018-04-12T04:15:38.026Z,69.74
2018-04-12T04:20:27.711Z,69.26
2018-04-12T04:23:02.451Z,69.50
2018-04-12T04:25:34.485Z,69.78
2018-04-12T04:28:04.892Z,69.65
2018-04-12T04:30:35.934Z,69.96
2018-04-12T04:33:06.630Z,70.00
2018-04-12T04:35:37.735Z,69.86
2018-04-12T04:38:08.258Z,69.35
2018-04-12T04:40:38.912Z,68.78
2018-04-12T04:43:09.580Z,68.80
2018-04-12T04:45:40.893Z,69.18
2018-04-12T04:48:14.037Z,69.16
2018-04-12T04:50:44.670Z,68.88
2018-04-12T04:53:15.000Z,69.25
2018-04-12T04:55:45.527Z,69.52
2018-04-12T04:58:15.838Z,69.41
2018-04-12T05:00:47.092Z,69.69
2018-04-12T05:03:18.128Z,69.53
2018-04-12T05:05:48.785Z,69.98
2018-04-12T05:08:19.345Z,69.66
2018-04-12T05:10:51.208Z,68.83
2018-04-12T05:13:24.152Z,68.29
2018-04-12T05:16:00.192Z,68.07
2018-04-12T05:18:41.906Z,68.17
2018-04-12T05:21:17.201Z,68.31
2018-04-12T05:23:47.650Z,68.31
2018-04-12T05:26:17.990Z,68.43
2018-04-12T05:28:48.292Z,68.95
2018-04-12T05:31:18.674Z,68.84
2018-04-12T05:33:49.670Z,68.77
2018-04-12T05:36:20.100Z,68.83
2018-04-12T05:38:50.540Z,69.08
2018-04-12T05:41:23.106Z,68.96
2018-04-12T05:43:53.903Z,68.91
2018-04-12T05:46:27.286Z,68.10
2018-04-12T05:48:58.218Z,68.50
2018-04-12T05:51:29.067Z,68.56
2018-04-12T05:54:00.247Z,68.46
2018-04-12T05:56:41.549Z,68.39
2018-04-12T05:59:13.732Z,68.12
2018-04-12T06:01:46.281Z,67.83
2018-04-12T06:04:16.772Z,67.76
2018-04-12T06:06:47.126Z,67.51
2018-04-12T06:09:17.840Z,66.71
2018-04-12T06:11:48.993Z,66.53
2018-04-12T06:14:19.618Z,65.87
2018-04-12T06:16:50.869Z,65.68
2018-04-12T06:19:21.957Z,65.38
2018-04-12T06:21:53.066Z,65.13
2018-04-12T06:24:24.317Z,65.21
2018-04-12T06:29:43.675Z,65.10
2018-04-12T06:32:14.909Z,65.54
2018-04-12T06:34:51.729Z,65.51
2018-04-12T06:37:23.090Z,65.40
2018-04-12T06:39:54.631Z,65.10
2018-04-12T06:42:35.376Z,65.39
2018-04-12T06:45:08.779Z,64.98
2018-04-12T06:47:46.045Z,64.58
2018-04-12T06:53:01.856Z,64.89
2018-04-12T06:55:34.225Z,64.21
2018-04-12T06:58:05.850Z,64.39
2018-04-12T07:00:36.822Z,64.17
2018-04-12T07:03:07.679Z,64.42
2018-04-12T07:05:39.452Z,64.94
2018-04-12T07:08:11.356Z,64.90
2018-04-12T07:10:42.548Z,63.90
2018-04-12T07:13:21.311Z,63.28
2018-04-12T07:15:53.417Z,63.37
2018-04-12T07:18:33.715Z,63.43
2018-04-12T07:21:26.883Z,63.17
2018-04-12T07:24:00.311Z,62.61
2018-04-12T07:26:32.773Z,62.31
2018-04-12T07:29:07.462Z,61.20
2018-04-12T07:31:40.789Z,61.21
2018-04-12T07:34:11.427Z,61.58
2018-04-12T07:36:49.205Z,61.42
2018-04-12T07:42:35.638Z,61.31
2018-04-12T07:45:07.843Z,61.48
2018-04-12T07:47:41.553Z,61.61
2018-04-12T07:50:12.198Z,62.17
2018-04-12T07:52:43.840Z,62.32
2018-04-12T07:55:14.965Z,62.73
2018-04-12T07:57:46.367Z,62.87
2018-04-12T08:00:25.406Z,63.20
2018-04-12T08:02:57.360Z,64.03
2018-04-12T08:05:28.201Z,64.00
2018-04-12T08:08:00.720Z,64.34
2018-04-12T08:10:35.817Z,64.25
2018-04-12T08:13:06.297Z,64.72
2018-04-12T08:15:41.859Z,63.80
2018-04-12T08:18:15.097Z,64.24
2018-04-12T08:20:47.650Z,63.97
2018-04-12T08:23:19.195Z,64.06
2018-04-12T08:25:50.586Z,64.70
2018-04-12T08:28:20.956Z,64.96
2018-04-12T08:30:51.607Z,64.95
2018-04-12T08:33:22.375Z,64.62
2018-04-12T08:35:54.379Z,64.29
2018-04-12T08:38:25.331Z,64.88
2018-04-12T08:41:04.689Z,64.97
2018-04-12T08:43:48.011Z,65.48
2018-04-12T08:46:18.675Z,65.67
2018-04-12T08:48:49.535Z,66.04
2018-04-12T08:51:20.093Z,65.83
2018-04-12T08:53:53.902Z,65.97
2018-04-12T08:56:27.605Z,66.65
2018-04-12T08:59:00.288Z,66.51
2018-04-12T09:01:33.319Z,66.57
2018-04-12T09:04:04.440Z,66.20
2018-04-12T09:06:35.933Z,65.91
2018-04-12T09:09:07.508Z,65.77
2018-04-12T09:11:38.855Z,65.43
2018-04-12T09:14:09.927Z,64.28
2018-04-12T09:16:42.804Z,64.66
2018-04-12T09:19:13.144Z,64.34
2018-04-12T09:21:44.899Z,63.78
2018-04-12T09:24:16.146Z,63.40
2018-04-12T09:26:46.534Z,62.43
2018-04-12T09:29:22.381Z,60.75
2018-04-12T09:31:53.850Z,59.27
2018-04-12T09:34:28.637Z,58.67
2018-04-12T09:37:01.596Z,58.43
2018-04-12T09:39:37.180Z,58.44
2018-04-12T09:42:08.431Z,57.92
2018-04-12T09:44:40.674Z,55.81
2018-04-12T09:47:13.997Z,54.49
2018-04-12T09:49:48.192Z,53.99
2018-04-12T09:52:30.444Z,54.45
2018-04-12T09:55:02.719Z,54.81
2018-04-12T09:57:38.502Z,53.66
2018-04-12T10:00:10.522Z,52.82
2018-04-12T10:02:48.526Z,51.76
2018-04-12T10:05:22.918Z,51.87
2018-04-12T10:07:56.200Z,51.13
2018-04-12T10:10:37.477Z,51.09
2018-04-12T10:13:17.725Z,50.94
2018-04-12T10:15:57.822Z,50.80
2018-04-12T10:18:33.645Z,49.05
2018-04-12T10:21:04.455Z,47.10
2018-04-12T10:23:45.496Z,46.12
2018-04-12T10:26:15.804Z,45.99
2018-04-12T10:28:49.319Z,47.28
2018-04-12T10:31:20.797Z,46.23
2018-04-12T10:33:53.324Z,46.63
2018-04-12T10:36:26.136Z,47.05
2018-04-12T10:39:03.712Z,47.11
2018-04-12T10:41:44.330Z,47.62
2018-04-12T10:44:15.751Z,47.80
2018-04-12T10:46:49.203Z,46.73
2018-04-12T10:49:20.520Z,46.82
2018-04-12T10:51:54.245Z,46.95
2018-04-12T10:54:39.043Z,47.39
2018-04-12T10:57:18.502Z,47.95
2018-04-12T10:59:51.653Z,47.47
2018-04-12T11:02:38.144Z,47.99
2018-04-12T11:05:11.275Z,47.86
2018-04-12T11:07:48.082Z,48.09
2018-04-12T11:10:21.190Z,47.72
2018-04-12T11:12:52.993Z,47.63
2018-04-12T11:15:26.974Z,46.70
2018-04-12T11:17:57.983Z,46.16
2018-04-12T11:20:28.548Z,44.06
2018-04-12T11:22:59.796Z,43.66
2018-04-12T11:25:31.886Z,41.21
2018-04-12T11:28:03.224Z,41.02
2018-04-12T11:30:35.933Z,41.72
2018-04-12T11:33:08.298Z,41.87
2018-04-12T11:35:40.368Z,41.35
2018-04-12T11:38:12.545Z,40.71
2018-04-12T11:40:44.858Z,40.82
2018-04-12T11:43:17.470Z,42.06
2018-04-12T11:45:49.477Z,42.02
2018-04-12T11:48:21.379Z,41.21
2018-04-12T11:50:58.942Z,40.34
2018-04-12T11:53:33.421Z,39.91
2018-04-12T11:56:07.718Z,40.65
2018-04-12T11:58:42.510Z,40.46
2018-04-12T12:01:17.624Z,39.42
2018-04-12T12:03:54.653Z,38.62
2018-04-12T12:06:26.781Z,38.61
2018-04-12T12:09:13.649Z,39.23
2018-04-12T12:11:54.958Z,38.84
2018-04-12T12:14:27.311Z,39.27
2018-04-12T12:16:58.619Z,38.55
2018-04-12T12:19:29.610Z,38.21
2018-04-12T12:22:00.370Z,37.83
2018-04-12T12:24:31.833Z,38.28
2018-04-12T12:27:04.337Z,38.42
2018-04-12T12:29:40.509Z,37.69
2018-04-12T12:32:12.333Z,38.30
2018-04-12T12:34:44.810Z,37.60
2018-04-12T12:37:18.326Z,38.13
2018-04-12T12:39:54.096Z,37.65
2018-04-12T12:42:27.634Z,37.33
2018-04-12T12:45:08.061Z,36.83
2018-04-12T12:47:46.114Z,36.79
2018-04-12T12:50:20.530Z,36.84
2018-04-12T12:52:52.028Z,37.04
2018-04-12T12:55:24.144Z,36.49
2018-04-12T12:57:55.732Z,36.30
2018-04-12T13:00:30.497Z,34.84
2018-04-12T13:03:01.714Z,35.74
2018-04-12T13:05:33.657Z,34.82
2018-04-12T13:08:04.940Z,35.24
2018-04-12T13:13:17.482Z,35.56
2018-04-12T13:15:48.454Z,35.35
2018-04-12T13:20:53.268Z,34.37
2018-04-12T13:23:23.676Z,33.41
2018-04-12T13:25:54.883Z,34.59
2018-04-12T13:28:26.110Z,35.06
2018-04-12T13:30:56.971Z,35.23
2018-04-12T13:33:35.883Z,35.98
2018-04-12T13:36:08.722Z,35.74
2018-04-12T13:38:39.723Z,36.47
2018-04-12T13:41:10.915Z,36.36
2018-04-12T13:43:42.245Z,37.03
2018-04-12T13:46:12.947Z,36.19
2018-04-12T13:48:47.209Z,36.12
2018-04-12T13:51:21.147Z,35.19
2018-04-12T13:53:54.604Z,34.75
2018-04-12T13:56:26.790Z,34.81
2018-04-12T13:59:05.410Z,36.37
2018-04-12T14:01:37.790Z,35.43
2018-04-12T14:04:19.005Z,35.74
2018-04-12T14:07:10.370Z,35.23
2018-04-12T14:09:42.150Z,34.51
2018-04-12T14:12:13.424Z,34.75
2018-04-12T14:14:44.625Z,34.87
2018-04-12T14:17:15.733Z,34.58
2018-04-12T14:19:46.096Z,33.86
2018-04-12T14:22:16.404Z,34.46
2018-04-12T14:24:47.046Z,34.14
2018-04-12T14:27:19.129Z,34.82
2018-04-12T14:29:50.295Z,35.22
2018-04-12T14:32:22.093Z,35.73
2018-04-12T14:34:52.644Z,35.81
2018-04-12T14:39:50.799Z,35.29
2018-04-12T14:42:23.294Z,34.28
2018-04-12T14:44:55.829Z,35.43
2018-04-12T14:47:26.856Z,34.96
2018-04-12T14:49:58.850Z,34.57
2018-04-12T14:52:30.832Z,34.50
2018-04-12T14:55:19.156Z,37.56
2018-04-12T14:57:49.895Z,35.31
2018-04-12T15:00:23.094Z,35.59
2018-04-12T15:02:55.952Z,36.92
2018-04-12T15:05:29.613Z,36.14
2018-04-12T15:08:05.854Z,35.15
2018-04-12T15:10:37.930Z,36.75
2018-04-12T15:13:15.614Z,36.69
2018-04-12T15:15:48.770Z,36.27
2018-04-12T15:18:22.089Z,36.75
2018-04-12T15:20:53.243Z,36.24
2018-04-12T15:23:32.165Z,36.62
2018-04-12T15:26:11.050Z,36.29
2018-04-12T15:28:45.053Z,36.63
2018-04-12T15:31:19.903Z,36.96
2018-04-12T15:33:53.608Z,36.55
2018-04-12T15:36:32.700Z,36.46
2018-04-12T15:39:06.697Z,36.07
2018-04-12T15:41:41.463Z,36.52
2018-04-12T15:44:26.119Z,36.09
2018-04-12T15:47:01.046Z,36.05
2018-04-12T15:49:33.296Z,36.01
2018-04-12T15:52:07.262Z,36.12
2018-04-12T15:54:38.391Z,36.13
2018-04-12T15:57:13.562Z,36.52
2018-04-12T15:59:49.388Z,36.41
2018-04-12T16:02:24.182Z,36.82
2018-04-12T16:05:10.286Z,36.99
2018-04-12T16:07:42.478Z,37.48
2018-04-12T16:10:13.674Z,37.65
2018-04-12T16:12:45.711Z,37.72
2018-04-12T16:15:20.058Z,37.62
2018-04-12T16:17:57.000Z,37.47
2018-04-12T16:20:40.194Z,37.38
2018-04-12T16:23:12.606Z,37.44
2018-04-12T16:25:46.302Z,37.83
2018-04-12T16:28:48.543Z,37.90
2018-04-12T16:31:21.054Z,38.13
2018-04-12T16:33:55.768Z,37.88
2018-04-12T16:36:33.905Z,37.65
2018-04-12T16:39:05.320Z,37.82
2018-04-12T16:41:37.892Z,37.97
2018-04-12T16:50:02.739Z,37.51
2018-04-12T16:52:33.119Z,36.96
2018-04-12T16:55:05.303Z,36.68
2018-04-12T16:57:35.640Z,37.30
2018-04-12T17:00:11.990Z,37.58
2018-04-12T17:02:54.568Z,37.71
2018-04-12T17:05:25.573Z,37.63
2018-04-12T17:08:06.016Z,38.09
2018-04-12T17:10:47.402Z,37.77
2018-04-12T17:13:20.331Z,37.68
2018-04-12T17:15:51.742Z,37.65
2018-04-12T17:18:24.840Z,37.73
2018-04-12T17:20:56.637Z,37.84
2018-04-12T17:23:28.393Z,38.24
2018-04-12T17:25:59.328Z,38.16
2018-04-12T17:28:30.856Z,39.03
2018-04-12T17:31:05.306Z,39.77
2018-04-12T17:33:39.083Z,39.99
2018-04-12T17:36:22.961Z,40.16
2018-04-12T17:38:56.161Z,40.53
2018-04-12T17:41:28.149Z,40.58
2018-04-12T17:43:58.704Z,40.74
2018-04-12T17:46:30.646Z,40.63
2018-04-12T17:49:01.375Z,40.69
2018-04-12T17:51:37.384Z,40.86
2018-04-12T17:54:08.099Z,40.67
2018-04-12T17:56:42.389Z,40.69
2018-04-12T17:59:17.748Z,41.29
2018-04-12T18:01:52.964Z,42.20
2018-04-12T18:04:25.386Z,43.39
2018-04-12T18:06:56.802Z,44.27
2018-04-12T18:09:50.664Z,44.64
2018-04-12T18:12:47.702Z,45.39
2018-04-12T18:15:19.294Z,44.79
2018-04-12T18:17:55.109Z,44.74
2018-04-12T18:20:27.617Z,45.78
2018-04-12T18:22:59.588Z,45.58
2018-04-12T18:25:34.190Z,46.32
2018-04-12T18:28:06.468Z,46.85
2018-04-12T18:30:37.341Z,47.01
2018-04-12T18:33:17.367Z,46.43
2018-04-12T18:35:49.108Z,46.07
2018-04-12T18:38:21.811Z,45.94
2018-04-12T18:40:52.442Z,45.70
2018-04-12T18:43:27.703Z,45.48
2018-04-12T18:45:59.456Z,45.22
2018-04-12T18:48:38.965Z,45.28
2018-04-12T18:51:13.551Z,45.47
2018-04-12T18:53:46.060Z,45.50
2018-04-12T18:56:16.566Z,45.75
2018-04-12T18:58:55.494Z,46.09
2018-04-12T19:01:38.495Z,46.36
2018-04-12T19:04:09.997Z,46.69
2018-04-12T19:06:41.679Z,47.41
2018-04-12T19:09:18.009Z,46.76
2018-04-12T19:11:48.861Z,46.26
2018-04-12T19:14:20.401Z,46.58
2018-04-12T19:16:52.148Z,47.68
2018-04-12T19:19:23.900Z,47.60
2018-04-12T19:21:59.028Z,47.46
2018-04-12T19:24:31.243Z,46.99
2018-04-12T19:27:01.904Z,48.16
2018-04-12T19:29:35.246Z,47.64
2018-04-12T19:32:12.997Z,47.79
2018-04-12T19:34:43.442Z,47.90
2018-04-12T19:37:13.609Z,48.04
2018-04-12T19:39:44.139Z,47.65
2018-04-12T19:42:14.570Z,47.51
2018-04-12T19:44:45.350Z,47.33
2018-04-12T19:47:16.464Z,47.29
2018-04-12T19:49:47.007Z,47.21
2018-04-12T19:52:17.566Z,47.43
2018-04-12T19:54:47.823Z,48.04
2018-04-12T19:57:18.325Z,48.58
2018-04-12T19:59:49.084Z,48.56
2018-04-12T20:02:21.858Z,48.83
2018-04-12T20:04:52.163Z,48.88
2018-04-12T20:10:02.397Z,48.40
2018-04-12T20:12:35.036Z,47.92
2018-04-12T20:15:08.404Z,47.65
2018-04-12T20:17:38.622Z,47.81
2018-04-12T20:20:09.673Z,47.63
2018-04-12T20:22:40.100Z,47.60
2018-04-12T20:25:10.793Z,47.54
2018-04-12T20:27:41.159Z,47.63
2018-04-12T20:30:14.337Z,47.54
2018-04-12T20:32:44.955Z,47.61
2018-04-12T20:35:19.874Z,47.81
2018-04-12T20:37:50.492Z,47.79
2018-04-12T20:40:20.795Z,47.81
2018-04-12T20:42:51.158Z,47.94
2018-04-12T20:45:22.011Z,48.24
2018-04-12T20:47:53.526Z,48.98
2018-04-12T20:50:25.273Z,49.61
2018-04-12T20:52:55.937Z,49.94
2018-04-12T20:55:28.407Z,49.95
2018-04-12T20:57:58.765Z,50.27
2018-04-12T21:00:38.761Z,50.54
2018-04-12T21:03:10.063Z,50.31
2018-04-12T21:05:40.305Z,50.57
2018-04-12T21:08:12.058Z,50.80
2018-04-12T21:10:45.911Z,50.74
2018-04-12T21:13:22.741Z,50.82
2018-04-12T21:15:54.160Z,50.55
2018-04-12T21:18:24.764Z,50.54
2018-04-12T21:20:55.229Z,50.29
2018-04-12T21:23:25.599Z,50.71
2018-04-12T21:25:56.866Z,50.47
2018-04-12T21:28:27.329Z,50.44
2018-04-12T21:30:59.306Z,50.38
2018-04-12T21:33:29.701Z,50.44
2018-04-12T21:36:00.228Z,50.67
2018-04-12T21:38:31.041Z,50.73
2018-04-12T21:41:03.644Z,50.80
2018-04-12T21:43:39.165Z,50.66
2018-04-12T21:46:10.602Z,50.83
2018-04-12T21:48:42.186Z,51.18
2018-04-12T21:51:13.297Z,51.26
2018-04-12T21:53:44.115Z,51.76
2018-04-12T21:56:15.968Z,52.15
2018-04-12T21:58:46.589Z,51.99
2018-04-12T22:01:17.589Z,51.90
2018-04-12T22:03:48.003Z,51.93
2018-04-12T22:06:19.169Z,52.37
2018-04-12T22:08:49.484Z,52.43
2018-04-12T22:11:20.347Z,52.50
2018-04-12T22:13:50.637Z,52.89
2018-04-12T22:16:21.791Z,52.80
2018-04-12T22:18:52.232Z,52.94
2018-04-12T22:21:22.773Z,53.34
2018-04-12T22:23:53.264Z,54.46
2018-04-12T22:26:23.748Z,55.41
2018-04-12T22:28:54.489Z,56.22
2018-04-12T22:31:27.485Z,56.50
2018-04-12T22:33:58.163Z,57.32
2018-04-12T22:36:28.738Z,57.18
2018-04-12T22:39:04.613Z,56.88
2018-04-12T22:45:08.735Z,57.16
2018-04-12T22:47:39.082Z,57.34
2018-04-12T22:50:09.687Z,56.72
2018-04-12T22:52:39.919Z,56.21
2018-04-12T22:55:10.763Z,56.24
2018-04-12T22:57:41.382Z,56.41
2018-04-12T23:00:16.012Z,56.60
2018-04-12T23:03:12.211Z,56.95
2018-04-12T23:05:43.356Z,57.32
2018-04-12T23:08:13.717Z,57.85
2018-04-12T23:10:44.465Z,57.94
2018-04-12T23:13:14.606Z,58.00
2018-04-12T23:15:45.143Z,57.98
2018-04-12T23:18:22.835Z,58.06
2018-04-12T23:20:53.247Z,57.93
2018-04-12T23:23:25.026Z,57.73
2018-04-12T23:25:55.461Z,57.57
2018-04-12T23:31:30.263Z,57.88
2018-04-12T23:34:01.291Z,58.35
2018-04-12T23:36:32.159Z,59.19
2018-04-12T23:39:02.664Z,60.14
2018-04-12T23:41:33.372Z,59.53
2018-04-12T23:47:26.408Z,58.69
2018-04-12T23:49:56.606Z,58.50
2018-04-12T23:52:27.534Z,58.40
2018-04-12T23:54:58.004Z,59.88
2018-04-12T23:57:29.037Z,60.90
2018-04-12T23:59:59.633Z,60.85
